createdAt,value
2017-10-12T00:01:52.761Z,2.60
2017-10-12T00:04:19.399Z,2.23
2017-10-12T00:06:46.038Z,2.20
2017-10-12T00:09:12.696Z,2.30
2017-10-12T00:11:39.329Z,2.20
2017-10-12T00:14:05.985Z,2.40
2017-10-12T00:16:32.625Z,2.23
2017-10-12T00:18:59.330Z,2.20
2017-10-12T00:21:25.968Z,2.07
2017-10-12T00:23:52.721Z,2.33
2017-10-12T00:26:19.353Z,2.37
2017-10-12T00:28:46.028Z,2.17
2017-10-12T00:31:12.660Z,2.07
2017-10-12T00:33:39.326Z,2.03
2017-10-12T00:36:05.977Z,2.10
2017-10-12T00:38:32.612Z,2.00
2017-10-12T00:40:59.264Z,2.10
2017-10-12T00:43:25.900Z,2.13
2017-10-12T00:45:52.560Z,2.30
2017-10-12T00:48:19.232Z,1.70
2017-10-12T00:50:45.885Z,2.40
2017-10-12T00:53:12.517Z,2.07
2017-10-12T00:55:39.189Z,2.30
2017-10-12T00:58:05.823Z,2.00
2017-10-12T01:00:32.472Z,2.03
2017-10-12T01:02:59.109Z,1.90
2017-10-12T01:05:25.741Z,2.03
2017-10-12T01:07:52.393Z,2.10
2017-10-12T01:10:19.021Z,2.00
2017-10-12T01:12:45.668Z,1.93
2017-10-12T01:15:12.307Z,2.10
2017-10-12T01:17:38.972Z,1.87
2017-10-12T01:20:05.615Z,2.10
2017-10-12T01:22:32.268Z,1.63
2017-10-12T01:24:58.905Z,1.80
2017-10-12T01:27:25.556Z,1.97
2017-10-12T01:29:52.188Z,2.00
2017-10-12T01:32:18.840Z,2.20
2017-10-12T01:34:45.472Z,2.20
2017-10-12T01:37:12.141Z,1.90
2017-10-12T01:39:39.109Z,1.97
2017-10-12T01:42:05.757Z,2.20
2017-10-12T01:44:32.405Z,1.90
2017-10-12T01:46:59.366Z,1.77
2017-10-12T01:49:26.012Z,2.03
2017-10-12T01:51:52.650Z,2.00
2017-10-12T01:54:19.296Z,2.10
2017-10-12T01:56:45.928Z,2.00
2017-10-12T01:59:12.604Z,2.17
2017-10-12T02:01:39.249Z,1.87
2017-10-12T02:04:05.897Z,1.60
2017-10-12T02:06:32.530Z,2.00
2017-10-12T02:08:59.194Z,2.07
2017-10-12T02:11:25.823Z,1.80
2017-10-12T02:13:52.472Z,2.17
2017-10-12T02:16:19.127Z,2.00
2017-10-12T02:18:45.808Z,1.63
2017-10-12T02:21:12.465Z,2.00
2017-10-12T02:23:39.111Z,1.67
2017-10-12T02:26:05.821Z,2.30
2017-10-12T02:28:32.460Z,2.10
2017-10-12T02:30:59.120Z,1.83
2017-10-12T02:33:25.749Z,1.90
2017-10-12T02:35:52.400Z,2.27
2017-10-12T02:38:19.032Z,2.03
2017-10-12T02:40:45.669Z,2.30
2017-10-12T02:43:12.417Z,2.10
2017-10-12T02:45:39.053Z,2.00
2017-10-12T02:48:05.733Z,1.80
2017-10-12T02:50:32.369Z,2.10
2017-10-12T02:52:59.016Z,1.77
2017-10-12T02:55:25.649Z,2.10
2017-10-12T02:57:52.298Z,2.10
2017-10-12T03:00:18.934Z,1.90
2017-10-12T03:02:45.596Z,1.90
2017-10-12T03:05:12.272Z,1.90
2017-10-12T03:07:38.925Z,1.83
2017-10-12T03:10:05.672Z,1.90
2017-10-12T03:12:32.313Z,1.77
2017-10-12T03:14:58.961Z,2.20
2017-10-12T03:17:25.593Z,2.00
2017-10-12T03:19:52.245Z,2.20
2017-10-12T03:22:18.928Z,1.90
2017-10-12T03:24:52.346Z,1.80
2017-10-12T03:27:18.988Z,1.90
2017-10-12T03:29:45.744Z,2.47
2017-10-12T03:32:12.381Z,1.73
2017-10-12T03:34:39.017Z,1.70
2017-10-12T03:37:05.664Z,2.07
2017-10-12T03:39:32.345Z,2.27
2017-10-12T03:41:58.997Z,1.90
2017-10-12T03:44:25.634Z,1.90
2017-10-12T03:46:52.280Z,1.87
2017-10-12T03:49:18.908Z,1.63
2017-10-12T03:51:45.545Z,1.80
2017-10-12T03:54:12.200Z,1.90
2017-10-12T03:56:38.838Z,1.73
2017-10-12T03:59:05.493Z,1.90
2017-10-12T04:01:32.201Z,2.20
2017-10-12T04:03:58.849Z,1.70
2017-10-12T04:06:25.481Z,1.60
2017-10-12T04:08:52.157Z,1.73
2017-10-12T04:11:18.804Z,1.93
2017-10-12T04:13:45.462Z,1.93
2017-10-12T04:16:12.126Z,2.30
2017-10-12T04:18:38.765Z,1.90
2017-10-12T04:21:05.421Z,1.70
2017-10-12T04:23:32.062Z,2.40
2017-10-12T04:25:58.714Z,1.97
2017-10-12T04:28:25.357Z,1.57
2017-10-12T04:30:52.005Z,1.80
2017-10-12T04:33:18.665Z,2.00
2017-10-12T04:35:45.409Z,1.93
2017-10-12T04:38:12.044Z,1.67
2017-10-12T04:40:38.705Z,1.57
2017-10-12T04:43:05.351Z,2.00
2017-10-12T04:45:32.022Z,2.00
2017-10-12T04:47:58.661Z,1.87
2017-10-12T04:50:25.293Z,1.77
2017-10-12T04:52:51.945Z,1.90
2017-10-12T04:55:18.626Z,1.80
2017-10-12T04:57:45.386Z,2.10
2017-10-12T05:00:12.041Z,1.83
2017-10-12T05:02:38.696Z,1.80
2017-10-12T05:05:05.325Z,2.03
2017-10-12T05:07:32.068Z,1.80
2017-10-12T05:09:58.701Z,1.80
2017-10-12T05:12:25.382Z,1.80
2017-10-12T05:14:52.022Z,1.63
2017-10-12T05:17:18.683Z,1.60
2017-10-12T05:19:45.314Z,1.70
2017-10-12T05:22:11.945Z,2.03
2017-10-12T05:24:38.632Z,1.50
2017-10-12T05:27:05.380Z,1.90
2017-10-12T05:29:32.039Z,1.73
2017-10-12T05:31:58.668Z,1.50
2017-10-12T05:34:25.320Z,2.00
2017-10-12T05:36:51.956Z,1.70
2017-10-12T05:39:18.635Z,1.80
2017-10-12T05:41:45.272Z,1.67
2017-10-12T05:44:11.936Z,1.63
2017-10-12T05:46:38.569Z,1.40
2017-10-12T05:49:05.212Z,1.77
2017-10-12T05:51:31.873Z,2.10
2017-10-12T05:53:58.505Z,2.03
2017-10-12T05:56:25.165Z,1.40
2017-10-12T05:58:51.809Z,1.70
2017-10-12T06:01:18.461Z,1.67
2017-10-12T06:03:45.100Z,2.10
2017-10-12T06:06:11.773Z,1.63
2017-10-12T06:08:38.404Z,1.40
2017-10-12T06:11:05.046Z,1.53
2017-10-12T06:13:31.700Z,1.60
2017-10-12T06:15:58.337Z,1.70
2017-10-12T06:18:24.990Z,1.67
2017-10-12T06:20:51.634Z,1.90
2017-10-12T06:23:18.290Z,2.30
2017-10-12T06:25:44.932Z,1.83
2017-10-12T06:28:11.657Z,2.13
2017-10-12T06:30:38.391Z,1.80
2017-10-12T06:33:05.046Z,1.97
2017-10-12T06:35:31.686Z,2.40
2017-10-12T06:37:58.345Z,2.40
2017-10-12T06:40:24.998Z,2.00
2017-10-12T06:42:51.636Z,1.83
2017-10-12T06:45:18.288Z,2.50
2017-10-12T06:47:44.937Z,1.90
2017-10-12T06:50:11.610Z,2.03
2017-10-12T06:52:38.352Z,1.70
2017-10-12T06:55:05.015Z,1.80
2017-10-12T06:57:31.654Z,2.00
2017-10-12T06:59:58.425Z,2.33
2017-10-12T07:02:25.071Z,1.70
2017-10-12T07:04:51.739Z,2.30
2017-10-12T07:07:18.386Z,1.73
2017-10-12T07:09:45.017Z,2.50
2017-10-12T07:12:11.675Z,2.23
2017-10-12T07:14:38.313Z,2.10
2017-10-12T07:17:04.975Z,2.33
2017-10-12T07:19:31.615Z,2.07
2017-10-12T07:21:58.274Z,2.10
2017-10-12T07:24:24.908Z,2.00
2017-10-12T07:26:51.666Z,2.10
2017-10-12T07:29:18.331Z,2.30
2017-10-12T07:31:44.970Z,2.00
2017-10-12T07:34:11.720Z,1.70
2017-10-12T07:36:38.354Z,2.67
2017-10-12T07:39:05.032Z,2.57
2017-10-12T07:41:31.668Z,3.10
2017-10-12T07:43:58.330Z,3.70
2017-10-12T07:46:24.964Z,3.80
2017-10-12T07:48:51.725Z,5.00
2017-10-12T07:51:18.356Z,3.10
2017-10-12T07:53:45.022Z,4.40
2017-10-12T07:56:11.727Z,2.70
2017-10-12T07:58:38.369Z,2.93
2017-10-12T08:01:05.022Z,2.40
2017-10-12T08:03:31.661Z,2.67
2017-10-12T08:05:58.388Z,3.03
2017-10-12T08:08:25.025Z,2.50
2017-10-12T08:10:51.681Z,2.70
2017-10-12T08:13:18.321Z,3.00
2017-10-12T08:15:44.973Z,3.37
2017-10-12T08:18:11.609Z,3.23
2017-10-12T08:20:38.268Z,4.00
2017-10-12T08:23:04.944Z,4.80
2017-10-12T08:25:31.605Z,4.80
2017-10-12T08:27:58.341Z,3.37
2017-10-12T08:30:25.101Z,4.10
2017-10-12T08:32:51.750Z,3.70
2017-10-12T08:35:18.384Z,4.03
2017-10-12T08:37:45.037Z,3.10
2017-10-12T08:40:11.664Z,3.00
2017-10-12T08:42:38.341Z,3.60
2017-10-12T08:45:05.007Z,3.70
2017-10-12T08:47:31.852Z,3.73
2017-10-12T08:49:58.498Z,3.50
2017-10-12T08:52:25.158Z,2.73
2017-10-12T08:54:51.793Z,3.73
2017-10-12T08:57:18.444Z,3.33
2017-10-12T08:59:45.081Z,3.33
2017-10-12T09:02:11.720Z,3.70
2017-10-12T09:04:38.368Z,3.47
2017-10-12T09:07:05.002Z,3.27
2017-10-12T09:09:31.666Z,2.20
2017-10-12T09:11:58.309Z,2.90
2017-10-12T09:14:25.013Z,3.10
2017-10-12T09:16:51.640Z,3.40
2017-10-12T09:19:18.287Z,3.43
2017-10-12T09:21:44.934Z,3.37
2017-10-12T09:24:11.596Z,3.40
2017-10-12T09:26:38.269Z,2.70
2017-10-12T09:29:04.909Z,2.80
2017-10-12T09:31:31.582Z,2.70
2017-10-12T09:33:58.326Z,3.20
2017-10-12T09:36:24.976Z,3.03
2017-10-12T09:38:51.625Z,2.73
2017-10-12T09:41:18.276Z,3.20
2017-10-12T09:43:44.938Z,3.13
2017-10-12T09:46:11.786Z,2.77
2017-10-12T09:48:38.421Z,3.20
2017-10-12T09:51:05.078Z,3.70
2017-10-12T09:53:31.721Z,2.43
2017-10-12T09:55:58.373Z,2.77
2017-10-12T09:58:25.038Z,2.60
2017-10-12T10:00:51.708Z,2.63
2017-10-12T10:03:18.350Z,2.47
2017-10-12T10:05:44.984Z,2.93
2017-10-12T10:08:11.650Z,2.63
2017-10-12T10:10:38.284Z,2.80
2017-10-12T10:13:04.944Z,3.27
2017-10-12T10:15:31.582Z,2.73
2017-10-12T10:17:58.346Z,2.80
2017-10-12T10:20:24.978Z,2.50
2017-10-12T10:22:51.636Z,3.13
2017-10-12T10:25:18.283Z,3.17
2017-10-12T10:27:44.945Z,2.70
2017-10-12T10:30:11.616Z,2.80
2017-10-12T10:32:38.349Z,2.80
2017-10-12T10:35:05.004Z,3.23
2017-10-12T10:37:31.645Z,2.43
2017-10-12T10:39:58.297Z,2.90
2017-10-12T10:42:24.959Z,2.97
2017-10-12T10:44:51.817Z,2.80
2017-10-12T10:47:18.556Z,2.10
2017-10-12T10:49:45.214Z,2.90
2017-10-12T10:52:11.865Z,3.07
2017-10-12T10:54:38.545Z,2.73
2017-10-12T10:57:05.177Z,2.93
2017-10-12T10:59:31.829Z,2.90
2017-10-12T11:01:58.569Z,2.80
2017-10-12T11:04:25.216Z,2.50
2017-10-12T11:06:51.865Z,2.43
2017-10-12T11:09:18.526Z,2.50
2017-10-12T11:11:45.161Z,2.20
2017-10-12T11:14:11.802Z,2.70
2017-10-12T11:16:38.452Z,2.70
2017-10-12T11:19:05.097Z,2.07
2017-10-12T11:21:31.766Z,2.30
2017-10-12T11:23:58.409Z,2.40
2017-10-12T11:26:25.069Z,2.40
2017-10-12T11:28:51.724Z,2.83
2017-10-12T11:31:18.386Z,2.30
2017-10-12T11:33:45.020Z,2.90
2017-10-12T11:36:11.680Z,2.37
2017-10-12T11:38:38.320Z,2.10
2017-10-12T11:41:04.981Z,2.30
2017-10-12T11:43:31.637Z,2.57
2017-10-12T11:45:58.273Z,2.13
2017-10-12T11:48:24.933Z,2.63
2017-10-12T11:50:51.569Z,2.40
2017-10-12T11:53:18.229Z,2.37
2017-10-12T11:55:44.870Z,2.17
2017-10-12T11:58:11.634Z,2.10
2017-10-12T12:00:38.264Z,2.40
2017-10-12T12:03:04.906Z,2.50
2017-10-12T12:05:31.594Z,2.07
2017-10-12T12:07:58.242Z,2.07
2017-10-12T12:10:24.889Z,2.23
2017-10-12T12:12:51.524Z,2.30
2017-10-12T12:15:18.199Z,1.87
2017-10-12T12:17:44.951Z,2.50
2017-10-12T12:20:11.710Z,2.63
2017-10-12T12:22:38.345Z,2.50
2017-10-12T12:25:04.997Z,2.33
2017-10-12T12:27:31.629Z,2.30
2017-10-12T12:29:58.306Z,2.10
2017-10-12T12:32:24.941Z,2.10
2017-10-12T12:34:51.596Z,2.37
2017-10-12T12:37:18.254Z,2.80
2017-10-12T12:39:44.894Z,2.30
2017-10-12T12:42:11.554Z,2.00
2017-10-12T12:44:38.298Z,2.40
2017-10-12T12:47:04.957Z,2.33
2017-10-12T12:49:31.594Z,2.10
2017-10-12T12:51:58.285Z,2.30
2017-10-12T12:54:24.930Z,1.60
2017-10-12T12:56:51.591Z,2.30
2017-10-12T12:59:18.313Z,2.20
2017-10-12T13:01:44.965Z,3.40
2017-10-12T13:04:11.605Z,1.93
2017-10-12T13:06:38.270Z,2.27
2017-10-12T13:09:04.997Z,1.70
2017-10-12T13:11:31.669Z,2.40
2017-10-12T13:13:58.322Z,2.20
2017-10-12T13:16:24.966Z,1.80
2017-10-12T13:18:51.720Z,1.80
2017-10-12T13:21:18.353Z,2.40
2017-10-12T13:23:45.006Z,1.90
2017-10-12T13:26:11.650Z,2.50
2017-10-12T13:28:38.325Z,2.40
2017-10-12T13:31:04.978Z,2.00
2017-10-12T13:33:31.734Z,2.00
2017-10-12T13:35:58.374Z,2.50
2017-10-12T13:38:25.035Z,1.90
2017-10-12T13:40:51.669Z,2.20
2017-10-12T13:43:18.310Z,1.90
2017-10-12T13:45:44.966Z,2.57
2017-10-12T13:48:11.596Z,2.03
2017-10-12T13:50:38.282Z,2.20
2017-10-12T13:53:04.921Z,1.93
2017-10-12T13:55:31.581Z,2.30
2017-10-12T13:57:58.217Z,2.27
2017-10-12T14:00:24.879Z,2.07
2017-10-12T14:02:51.550Z,2.37
2017-10-12T14:05:18.281Z,2.20
2017-10-12T14:07:44.942Z,2.17
2017-10-12T14:10:11.576Z,2.20
2017-10-12T14:12:38.661Z,1.83
2017-10-12T14:15:05.299Z,2.23
2017-10-12T14:17:31.961Z,2.33
2017-10-12T14:19:58.598Z,1.77
2017-10-12T14:22:25.357Z,2.00
2017-10-12T14:24:51.990Z,1.70
2017-10-12T14:27:18.657Z,2.13
2017-10-12T14:29:45.293Z,2.10
2017-10-12T14:32:12.225Z,2.17
2017-10-12T14:34:38.880Z,2.37
2017-10-12T14:37:05.549Z,2.00
2017-10-12T14:39:32.184Z,1.97
2017-10-12T14:41:58.833Z,1.87
2017-10-12T14:44:25.501Z,1.90
2017-10-12T14:46:52.139Z,2.30
2017-10-12T14:49:18.803Z,1.60
2017-10-12T14:51:45.436Z,2.00
2017-10-12T14:54:12.094Z,2.20
2017-10-12T14:56:38.725Z,2.13
2017-10-12T14:59:05.382Z,1.93
2017-10-12T15:01:32.068Z,2.30
2017-10-12T15:03:58.717Z,2.10
2017-10-12T15:06:25.348Z,1.80
2017-10-12T15:08:52.037Z,1.77
2017-10-12T15:11:18.777Z,1.80
2017-10-12T15:13:45.429Z,2.10
2017-10-12T15:16:12.060Z,1.57
2017-10-12T15:18:38.728Z,2.10
2017-10-12T15:21:05.363Z,2.57
2017-10-12T15:23:32.012Z,1.70
2017-10-12T15:25:58.674Z,1.97
2017-10-12T15:28:25.309Z,1.70
2017-10-12T15:30:51.989Z,2.00
2017-10-12T15:33:18.625Z,2.53
2017-10-12T15:35:45.294Z,1.80
2017-10-12T15:38:11.936Z,1.53
2017-10-12T15:40:38.590Z,2.10
2017-10-12T15:43:05.247Z,2.60
2017-10-12T15:45:31.986Z,1.87
2017-10-12T15:47:58.616Z,1.87
2017-10-12T15:50:25.301Z,1.87
2017-10-12T15:52:52.049Z,2.00
2017-10-12T15:55:18.792Z,1.70
2017-10-12T15:57:45.445Z,1.80
2017-10-12T16:00:12.072Z,2.20
2017-10-12T16:02:38.725Z,1.67
2017-10-12T16:05:05.366Z,1.83
2017-10-12T16:07:32.016Z,1.90
2017-10-12T16:09:58.708Z,1.87
2017-10-12T16:12:25.418Z,1.70
2017-10-12T16:14:52.065Z,1.43
2017-10-12T16:19:45.357Z,1.90
2017-10-12T16:22:12.018Z,1.93
2017-10-12T16:24:38.657Z,2.10
2017-10-12T16:27:05.300Z,2.03
2017-10-12T16:29:32.014Z,1.80
2017-10-12T16:31:58.649Z,1.70
2017-10-12T16:34:25.302Z,1.93
2017-10-12T16:36:51.941Z,1.77
2017-10-12T16:39:18.933Z,1.87
2017-10-12T16:41:45.579Z,1.80
2017-10-12T16:44:12.238Z,2.00
2017-10-12T16:46:38.878Z,1.80
2017-10-12T16:49:05.533Z,1.90
2017-10-12T16:51:32.161Z,2.17
2017-10-12T16:53:58.802Z,1.77
2017-10-12T16:56:25.453Z,2.10
2017-10-12T16:58:52.092Z,1.80
2017-10-12T17:01:18.743Z,2.30
2017-10-12T17:03:45.378Z,2.40
2017-10-12T17:06:12.074Z,1.87
2017-10-12T17:08:38.714Z,1.90
2017-10-12T17:11:05.370Z,2.00
2017-10-12T17:13:32.016Z,1.63
2017-10-12T17:15:58.682Z,1.70
2017-10-12T17:18:25.316Z,1.90
2017-10-12T17:20:51.974Z,2.10
2017-10-12T17:25:45.298Z,1.60
2017-10-12T17:28:12.038Z,1.90
2017-10-12T17:30:38.685Z,1.87
2017-10-12T17:33:05.340Z,1.97
2017-10-12T17:35:31.996Z,1.50
2017-10-12T17:37:58.657Z,1.70
2017-10-12T17:40:25.383Z,1.90
2017-10-12T17:42:52.033Z,1.50
2017-10-12T17:45:18.666Z,1.57
2017-10-12T17:47:45.338Z,1.77
2017-10-12T17:50:11.974Z,1.93
2017-10-12T17:52:38.607Z,1.37
2017-10-12T17:55:05.263Z,1.60
2017-10-12T17:57:31.905Z,1.90
2017-10-12T17:59:58.561Z,1.60
2017-10-12T18:02:25.201Z,1.90
2017-10-12T18:04:51.898Z,1.73
2017-10-12T18:07:18.547Z,2.20
2017-10-12T18:09:45.206Z,1.73
2017-10-12T18:12:26.804Z,1.70
2017-10-12T18:14:38.533Z,2.20
2017-10-12T18:17:05.176Z,1.57
2017-10-12T18:19:31.826Z,1.70
2017-10-12T18:21:58.484Z,1.80
2017-10-12T18:24:25.158Z,1.53
2017-10-12T18:26:51.857Z,1.60
2017-10-12T18:29:18.614Z,1.53
2017-10-12T18:31:45.262Z,1.60
2017-10-12T18:34:11.918Z,1.90
2017-10-12T18:36:38.559Z,1.60
2017-10-12T18:39:05.278Z,1.70
2017-10-12T18:41:32.078Z,1.73
2017-10-12T18:43:58.713Z,1.90
2017-10-12T18:46:25.378Z,1.47
2017-10-12T18:48:52.130Z,1.60
2017-10-12T18:51:18.892Z,1.57
2017-10-12T18:53:45.538Z,1.70
2017-10-12T18:56:12.197Z,1.77
2017-10-12T18:58:38.840Z,1.50
2017-10-12T19:01:05.500Z,1.87
2017-10-12T19:03:32.141Z,2.10
2017-10-12T19:05:59.784Z,1.70
2017-10-12T19:08:26.416Z,1.60
2017-10-12T19:10:53.148Z,1.60
2017-10-12T19:13:19.798Z,1.50
2017-10-12T19:15:46.437Z,1.60
2017-10-12T19:18:13.161Z,1.60
2017-10-12T19:20:39.801Z,1.80
2017-10-12T19:23:06.666Z,1.60
2017-10-12T19:25:33.319Z,1.67
2017-10-12T19:27:59.994Z,2.00
2017-10-12T19:30:26.718Z,1.67
2017-10-12T19:32:53.373Z,1.70
2017-10-12T19:35:20.005Z,1.70
2017-10-12T19:37:47.536Z,1.60
2017-10-12T19:40:14.194Z,1.97
2017-10-12T19:42:40.833Z,1.90
2017-10-12T19:45:07.493Z,1.60
2017-10-12T19:47:34.137Z,2.07
2017-10-12T19:50:00.850Z,1.40
2017-10-12T19:52:27.486Z,1.60
2017-10-12T19:54:54.137Z,2.13
2017-10-12T19:57:20.774Z,1.57
2017-10-12T19:59:47.445Z,2.03
2017-10-12T20:02:14.077Z,1.60
2017-10-12T20:04:40.740Z,1.87
2017-10-12T20:07:07.377Z,1.50
2017-10-12T20:09:34.066Z,1.60
2017-10-12T20:12:00.725Z,1.40
2017-10-12T20:14:27.458Z,1.87
2017-10-12T20:16:54.141Z,1.90
2017-10-12T20:19:20.805Z,1.53
2017-10-12T20:21:47.531Z,1.60
2017-10-12T20:26:41.017Z,1.57
2017-10-12T20:29:36.890Z,1.40
2017-10-12T20:31:34.376Z,1.50
2017-10-12T20:34:01.030Z,1.60
2017-10-12T20:36:27.713Z,1.30
2017-10-12T20:38:54.355Z,1.37
2017-10-12T20:41:21.000Z,1.70
2017-10-12T20:43:47.678Z,1.57
2017-10-12T20:46:14.417Z,1.73
2017-10-12T20:48:41.168Z,1.50
2017-10-12T20:51:07.816Z,1.50
2017-10-12T20:53:34.473Z,1.40
2017-10-12T20:56:01.109Z,1.33
2017-10-12T20:58:27.774Z,1.70
2017-10-12T21:00:54.405Z,2.03
2017-10-12T21:03:21.176Z,1.50
2017-10-12T21:05:47.814Z,1.43
2017-10-12T21:08:14.444Z,1.50
2017-10-12T21:10:41.110Z,1.50
2017-10-12T21:13:07.745Z,1.60
2017-10-12T21:15:34.439Z,1.70
2017-10-12T21:18:01.085Z,1.20
2017-10-12T21:20:27.732Z,1.80
2017-10-12T21:22:54.373Z,1.30
2017-10-12T21:25:21.052Z,1.33
2017-10-12T21:27:47.690Z,1.37
2017-10-12T21:30:14.345Z,1.37
2017-10-12T21:32:40.982Z,1.40
2017-10-12T21:35:07.642Z,1.63
2017-10-12T21:37:34.298Z,1.50
2017-10-12T21:40:00.939Z,1.87
2017-10-12T21:42:27.589Z,1.60
2017-10-12T21:44:54.229Z,1.30
2017-10-12T21:47:20.890Z,1.40
2017-10-12T21:49:47.521Z,1.60
2017-10-12T21:52:14.179Z,1.60
2017-10-12T21:54:40.809Z,1.40
2017-10-12T21:57:07.461Z,1.40
2017-10-12T21:59:34.144Z,1.37
2017-10-12T22:02:00.782Z,1.87
2017-10-12T22:04:27.438Z,1.40
2017-10-12T22:06:54.082Z,1.60
2017-10-12T22:09:20.732Z,1.47
2017-10-12T22:11:47.505Z,1.90
2017-10-12T22:14:14.161Z,1.60
2017-10-12T22:16:40.797Z,2.17
2017-10-12T22:19:07.553Z,1.80
2017-10-12T22:21:34.626Z,1.40
2017-10-12T22:24:01.281Z,1.53
2017-10-12T22:26:27.918Z,1.43
2017-10-12T22:28:54.580Z,1.70
2017-10-12T22:31:21.313Z,1.53
2017-10-12T22:33:48.068Z,1.40
2017-10-12T22:36:14.708Z,1.43
2017-10-12T22:38:41.479Z,1.40
2017-10-12T22:41:08.118Z,1.77
2017-10-12T22:43:34.752Z,1.60
2017-10-12T22:46:01.400Z,1.50
2017-10-12T22:48:28.042Z,1.47
2017-10-12T22:50:54.733Z,2.43
2017-10-12T22:53:21.369Z,1.57
2017-10-12T22:55:48.020Z,1.30
2017-10-12T22:58:14.658Z,1.67
2017-10-12T23:00:41.318Z,1.50
2017-10-12T23:03:07.949Z,1.50
2017-10-12T23:05:34.601Z,1.43
2017-10-12T23:08:01.241Z,1.40
2017-10-12T23:10:27.892Z,1.40
2017-10-12T23:12:54.529Z,1.80
2017-10-12T23:15:21.238Z,1.50
2017-10-12T23:17:47.886Z,1.37
2017-10-12T23:20:14.538Z,1.17
2017-10-12T23:22:41.284Z,1.10
2017-10-12T23:25:07.926Z,1.40
2017-10-12T23:27:34.588Z,1.30
2017-10-12T23:30:01.216Z,1.52
2017-10-12T23:32:27.888Z,1.57
2017-10-12T23:34:54.545Z,1.50
2017-10-12T23:37:21.202Z,1.60
2017-10-12T23:39:47.832Z,1.47
2017-10-12T23:42:14.497Z,1.37
2017-10-12T23:44:41.129Z,1.40
2017-10-12T23:47:07.771Z,1.37
2017-10-12T23:49:34.433Z,1.40
2017-10-12T23:52:01.106Z,1.30
2017-10-12T23:54:27.761Z,1.60
2017-10-12T23:56:54.507Z,1.40
2017-10-12T23:59:21.170Z,1.30
